Aviation Digital Data Service (ADDS)

Output produced by METARs form (0657 UTC 03 September 2014)
found at http://www.aviationweather.gov/adds/metars/
 
KBMI 030537Z 0306/0406 VRB04KT P6SM SCT050 SCT250 
     FM030900 VRB03KT 4SM BR SKC 
     TEMPO 0310/0312 2SM BR SCT005 
     FM031500 17009KT P6SM SCT030 
     FM040000 16007KT P6SM SKC